sensor_id;sensor_type;location;lat;lon;timestamp;pressure;altitude;pressure_sealevel;temperature;humidity
72066;BME280;59939;52.516;13.420;2022-10-17T00:02:19;101233.13;;;21.21;47.93
72066;BME280;59939;52.516;13.420;2022-10-17T00:05:25;101233.47;;;21.00;48.32
72066;BME280;59939;52.516;13.420;2022-10-17T00:08:29;101238.25;;;20.99;48.35
72066;BME280;59939;52.516;13.420;2022-10-17T00:11:34;101236.00;;;21.43;47.12
72066;BME280;59939;52.516;13.420;2022-10-17T00:14:38;101240.78;;;20.89;48.46
72066;BME280;59939;52.516;13.420;2022-10-17T00:17:44;101242.25;;;20.82;48.91
72066;BME280;59939;52.516;13.420;2022-10-17T00:21:02;101231.31;;;20.93;48.60
72066;BME280;59939;52.516;13.420;2022-10-17T00:24:10;101213.84;;;20.42;50.30
72066;BME280;59939;52.516;13.420;2022-10-17T00:27:22;101221.47;;;19.98;51.26
72066;BME280;59939;52.516;13.420;2022-10-17T00:30:27;101232.16;;;19.80;52.01
72066;BME280;59939;52.516;13.420;2022-10-17T00:33:31;101244.03;;;20.08;51.25
72066;BME280;59939;52.516;13.420;2022-10-17T00:36:35;101235.94;;;20.66;49.86
72066;BME280;59939;52.516;13.420;2022-10-17T00:39:40;101231.63;;;20.53;49.68
72066;BME280;59939;52.516;13.420;2022-10-17T00:42:44;101222.63;;;19.81;52.19
72066;BME280;59939;52.516;13.420;2022-10-17T00:45:48;101222.41;;;19.58;53.26
72066;BME280;59939;52.516;13.420;2022-10-17T00:48:53;101224.84;;;19.32;54.45
72066;BME280;59939;52.516;13.420;2022-10-17T00:52:00;101226.25;;;20.29;51.80
72066;BME280;59939;52.516;13.420;2022-10-17T00:55:26;101240.34;;;20.36;51.41
72066;BME280;59939;52.516;13.420;2022-10-17T00:58:33;101243.34;;;20.43;51.00
72066;BME280;59939;52.516;13.420;2022-10-17T01:01:40;101248.72;;;20.87;50.00
72066;BME280;59939;52.516;13.420;2022-10-17T01:04:47;101243.81;;;20.80;49.87
72066;BME280;59939;52.516;13.420;2022-10-17T01:07:52;101234.31;;;20.34;51.06
72066;BME280;59939;52.516;13.420;2022-10-17T01:11:21;101234.97;;;20.27;51.86
72066;BME280;59939;52.516;13.420;2022-10-17T01:14:51;101222.91;;;20.55;51.00
72066;BME280;59939;52.516;13.420;2022-10-17T01:18:35;101227.91;;;19.70;53.58
72066;BME280;59939;52.516;13.420;2022-10-17T01:21:56;101223.06;;;19.67;54.20
72066;BME280;59939;52.516;13.420;2022-10-17T01:25:17;101219.88;;;20.12;52.92
72066;BME280;59939;52.516;13.420;2022-10-17T01:28:55;101213.25;;;19.58;54.69
72066;BME280;59939;52.516;13.420;2022-10-17T01:32:11;101215.72;;;19.91;54.73
72066;BME280;59939;52.516;13.420;2022-10-17T01:35:35;101211.31;;;20.05;54.25
72066;BME280;59939;52.516;13.420;2022-10-17T01:38:48;101209.00;;;19.48;56.12
72066;BME280;59939;52.516;13.420;2022-10-17T01:42:00;101209.63;;;19.41;56.47
72066;BME280;59939;52.516;13.420;2022-10-17T01:48:24;101211.50;;;19.81;56.79
72066;BME280;59939;52.516;13.420;2022-10-17T01:51:44;101199.72;;;20.03;55.60
72066;BME280;59939;52.516;13.420;2022-10-17T01:55:02;101203.72;;;18.75;59.49
72066;BME280;59939;52.516;13.420;2022-10-17T01:58:12;101204.72;;;18.82;59.54
72066;BME280;59939;52.516;13.420;2022-10-17T02:01:25;101205.66;;;19.70;57.71
72066;BME280;59939;52.516;13.420;2022-10-17T02:04:31;101199.41;;;19.17;59.82
72066;BME280;59939;52.516;13.420;2022-10-17T02:07:35;101199.00;;;19.03;60.36
72066;BME280;59939;52.516;13.420;2022-10-17T02:10:53;101196.78;;;19.37;59.89
72066;BME280;59939;52.516;13.420;2022-10-17T02:14:23;101196.97;;;19.16;60.93
72066;BME280;59939;52.516;13.420;2022-10-17T02:17:43;101210.53;;;19.45;59.75
72066;BME280;59939;52.516;13.420;2022-10-17T02:21:12;101197.72;;;19.57;59.51
72066;BME280;59939;52.516;13.420;2022-10-17T02:31:01;101201.72;;;19.15;59.94
72066;BME280;59939;52.516;13.420;2022-10-17T02:34:20;101202.78;;;18.46;63.43
72066;BME280;59939;52.516;13.420;2022-10-17T02:37:30;101199.47;;;18.16;65.26
72066;BME280;59939;52.516;13.420;2022-10-17T02:40:42;101192.50;;;18.35;65.12
72066;BME280;59939;52.516;13.420;2022-10-17T02:43:48;101193.31;;;19.55;60.52
72066;BME280;59939;52.516;13.420;2022-10-17T02:47:00;101191.50;;;18.15;65.37
72066;BME280;59939;52.516;13.420;2022-10-17T02:50:06;101193.00;;;18.12;65.75
72066;BME280;59939;52.516;13.420;2022-10-17T02:53:29;101187.94;;;18.79;63.71
72066;BME280;59939;52.516;13.420;2022-10-17T02:56:45;101187.03;;;18.75;64.43
72066;BME280;59939;52.516;13.420;2022-10-17T02:59:54;101181.16;;;18.27;67.25
72066;BME280;59939;52.516;13.420;2022-10-17T03:02:59;101187.91;;;18.02;67.42
72066;BME280;59939;52.516;13.420;2022-10-17T03:06:03;101187.66;;;18.19;66.96
72066;BME280;59939;52.516;13.420;2022-10-17T03:09:07;101186.25;;;18.38;65.37
72066;BME280;59939;52.516;13.420;2022-10-17T03:12:12;101190.72;;;19.19;62.46
72066;BME280;59939;52.516;13.420;2022-10-17T03:15:18;101180.47;;;18.31;66.64
72066;BME280;59939;52.516;13.420;2022-10-17T03:18:22;101193.66;;;17.52;70.08
72066;BME280;59939;52.516;13.420;2022-10-17T03:21:30;101189.41;;;18.12;67.37
72066;BME280;59939;52.516;13.420;2022-10-17T03:24:34;101195.03;;;17.79;69.31
72066;BME280;59939;52.516;13.420;2022-10-17T03:27:38;101190.75;;;17.69;68.71
72066;BME280;59939;52.516;13.420;2022-10-17T03:30:42;101177.81;;;17.85;67.67
72066;BME280;59939;52.516;13.420;2022-10-17T03:33:46;101178.81;;;17.69;69.20
72066;BME280;59939;52.516;13.420;2022-10-17T03:36:51;101167.34;;;18.68;64.64
72066;BME280;59939;52.516;13.420;2022-10-17T03:39:55;101174.84;;;18.79;64.78
72066;BME280;59939;52.516;13.420;2022-10-17T03:42:58;101176.91;;;18.06;67.74
72066;BME280;59939;52.516;13.420;2022-10-17T03:46:06;101180.13;;;18.32;67.01
72066;BME280;59939;52.516;13.420;2022-10-17T03:49:10;101176.81;;;17.57;69.62
72066;BME280;59939;52.516;13.420;2022-10-17T03:52:15;101185.78;;;17.09;71.34
72066;BME280;59939;52.516;13.420;2022-10-17T03:55:19;101178.78;;;17.23;71.16
72066;BME280;59939;52.516;13.420;2022-10-17T03:58:23;101169.34;;;17.70;69.25
72066;BME280;59939;52.516;13.420;2022-10-17T04:01:29;101176.50;;;18.44;65.71
72066;BME280;59939;52.516;13.420;2022-10-17T04:04:33;101164.13;;;18.53;65.71
72066;BME280;59939;52.516;13.420;2022-10-17T04:07:39;101168.44;;;17.78;68.25
72066;BME280;59939;52.516;13.420;2022-10-17T04:10:43;101170.03;;;18.64;64.98
72066;BME280;59939;52.516;13.420;2022-10-17T04:13:52;101160.59;;;18.16;66.54
72066;BME280;59939;52.516;13.420;2022-10-17T04:16:57;101154.16;;;17.22;70.30
72066;BME280;59939;52.516;13.420;2022-10-17T04:20:02;101151.50;;;17.58;69.83
72066;BME280;59939;52.516;13.420;2022-10-17T04:23:07;101159.84;;;17.25;71.69
72066;BME280;59939;52.516;13.420;2022-10-17T04:26:11;101158.78;;;17.18;72.07
72066;BME280;59939;52.516;13.420;2022-10-17T04:29:15;101160.53;;;18.53;66.30
72066;BME280;59939;52.516;13.420;2022-10-17T04:32:21;101162.97;;;17.24;71.58
72066;BME280;59939;52.516;13.420;2022-10-17T04:35:34;101162.09;;;17.89;69.35
72066;BME280;59939;52.516;13.420;2022-10-17T04:38:40;101167.97;;;17.10;72.02
72066;BME280;59939;52.516;13.420;2022-10-17T04:41:46;101156.88;;;17.76;68.93
72066;BME280;59939;52.516;13.420;2022-10-17T04:44:51;101160.00;;;17.99;67.74
72066;BME280;59939;52.516;13.420;2022-10-17T04:47:54;101152.81;;;18.22;67.01
72066;BME280;59939;52.516;13.420;2022-10-17T04:51:01;101150.13;;;18.38;66.18
72066;BME280;59939;52.516;13.420;2022-10-17T04:54:11;101164.94;;;18.66;64.97
72066;BME280;59939;52.516;13.420;2022-10-17T04:57:18;101163.31;;;18.65;65.06
72066;BME280;59939;52.516;13.420;2022-10-17T05:00:42;101161.22;;;18.50;65.16
72066;BME280;59939;52.516;13.420;2022-10-17T05:03:51;101166.03;;;18.01;67.25
72066;BME280;59939;52.516;13.420;2022-10-17T05:06:54;101165.00;;;18.05;66.63
72066;BME280;59939;52.516;13.420;2022-10-17T05:10:17;101158.63;;;18.81;63.63
72066;BME280;59939;52.516;13.420;2022-10-17T05:13:24;101156.00;;;18.73;63.90
72066;BME280;59939;52.516;13.420;2022-10-17T05:16:29;101165.44;;;17.38;69.28
72066;BME280;59939;52.516;13.420;2022-10-17T05:19:34;101155.66;;;17.65;68.67
72066;BME280;59939;52.516;13.420;2022-10-17T05:22:38;101164.47;;;18.40;65.22
72066;BME280;59939;52.516;13.420;2022-10-17T05:25:43;101175.75;;;16.83;72.49
72066;BME280;59939;52.516;13.420;2022-10-17T05:28:47;101175.28;;;16.81;73.09
72066;BME280;59939;52.516;13.420;2022-10-17T05:31:54;101162.66;;;17.38;70.32
72066;BME280;59939;52.516;13.420;2022-10-17T05:34:59;101171.69;;;16.81;72.77
72066;BME280;59939;52.516;13.420;2022-10-17T05:38:03;101162.06;;;17.32;70.08
72066;BME280;59939;52.516;13.420;2022-10-17T05:41:09;101166.22;;;16.43;74.43
72066;BME280;59939;52.516;13.420;2022-10-17T05:44:14;101162.72;;;16.96;72.13
72066;BME280;59939;52.516;13.420;2022-10-17T05:47:22;101172.03;;;16.50;74.22
72066;BME280;59939;52.516;13.420;2022-10-17T05:50:26;101169.75;;;16.52;74.59
72066;BME280;59939;52.516;13.420;2022-10-17T05:53:40;101167.69;;;17.23;71.87
72066;BME280;59939;52.516;13.420;2022-10-17T05:56:52;101172.25;;;17.40;70.33
72066;BME280;59939;52.516;13.420;2022-10-17T05:59:58;101172.94;;;17.37;70.85
72066;BME280;59939;52.516;13.420;2022-10-17T06:03:01;101184.50;;;16.35;75.21
72066;BME280;59939;52.516;13.420;2022-10-17T06:06:10;101169.47;;;17.07;72.25
72066;BME280;59939;52.516;13.420;2022-10-17T06:09:18;101184.66;;;17.22;71.14
72066;BME280;59939;52.516;13.420;2022-10-17T06:12:25;101195.38;;;16.90;73.74
72066;BME280;59939;52.516;13.420;2022-10-17T06:15:29;101201.59;;;16.37;75.56
72066;BME280;59939;52.516;13.420;2022-10-17T06:18:38;101205.25;;;17.54;70.46
72066;BME280;59939;52.516;13.420;2022-10-17T06:21:43;101217.97;;;17.01;72.05
72066;BME280;59939;52.516;13.420;2022-10-17T06:24:53;101213.19;;;16.60;74.75
72066;BME280;59939;52.516;13.420;2022-10-17T06:27:58;101219.47;;;16.78;74.73
72066;BME280;59939;52.516;13.420;2022-10-17T06:31:13;101227.16;;;16.72;73.95
72066;BME280;59939;52.516;13.420;2022-10-17T06:34:18;101219.59;;;17.02;72.37
72066;BME280;59939;52.516;13.420;2022-10-17T06:37:22;101224.81;;;16.53;75.13
72066;BME280;59939;52.516;13.420;2022-10-17T06:40:33;101231.97;;;16.84;73.97
72066;BME280;59939;52.516;13.420;2022-10-17T06:43:38;101231.91;;;16.72;74.34
72066;BME280;59939;52.516;13.420;2022-10-17T06:47:13;101240.16;;;16.80;73.82
72066;BME280;59939;52.516;13.420;2022-10-17T06:50:52;101244.53;;;17.02;72.95
72066;BME280;59939;52.516;13.420;2022-10-17T06:54:03;101236.53;;;17.42;71.10
72066;BME280;59939;52.516;13.420;2022-10-17T06:57:26;101235.41;;;17.55;71.57
72066;BME280;59939;52.516;13.420;2022-10-17T07:01:01;101228.66;;;17.44;70.92
72066;BME280;59939;52.516;13.420;2022-10-17T07:04:06;101242.88;;;17.43;71.38
72066;BME280;59939;52.516;13.420;2022-10-17T07:07:13;101225.16;;;18.13;68.53
72066;BME280;59939;52.516;13.420;2022-10-17T07:10:25;101227.47;;;18.72;66.69
72066;BME280;59939;52.516;13.420;2022-10-17T07:13:29;101233.25;;;18.31;67.65
72066;BME280;59939;52.516;13.420;2022-10-17T07:16:33;101252.09;;;18.01;68.25
72066;BME280;59939;52.516;13.420;2022-10-17T07:19:51;101258.25;;;18.18;67.31
72066;BME280;59939;52.516;13.420;2022-10-17T07:22:55;101248.53;;;18.49;66.33
72066;BME280;59939;52.516;13.420;2022-10-17T07:26:01;101259.59;;;19.10;63.94
72066;BME280;59939;52.516;13.420;2022-10-17T07:29:09;101257.56;;;18.82;65.04
72066;BME280;59939;52.516;13.420;2022-10-17T07:32:20;101256.06;;;19.25;63.45
72066;BME280;59939;52.516;13.420;2022-10-17T07:35:24;101261.91;;;19.08;63.53
72066;BME280;59939;52.516;13.420;2022-10-17T07:38:28;101262.00;;;19.11;63.49
72066;BME280;59939;52.516;13.420;2022-10-17T07:41:34;101255.53;;;19.91;60.20
72066;BME280;59939;52.516;13.420;2022-10-17T07:44:40;101248.09;;;20.58;58.69
72066;BME280;59939;52.516;13.420;2022-10-17T07:47:46;101252.31;;;20.52;58.54
72066;BME280;59939;52.516;13.420;2022-10-17T07:50:52;101252.75;;;20.54;57.73
72066;BME280;59939;52.516;13.420;2022-10-17T07:53:56;101243.56;;;21.24;56.43
72066;BME280;59939;52.516;13.420;2022-10-17T07:57:00;101269.31;;;19.72;60.00
72066;BME280;59939;52.516;13.420;2022-10-17T08:00:06;101266.94;;;21.00;55.76
72066;BME280;59939;52.516;13.420;2022-10-17T08:03:15;101256.66;;;21.04;56.23
72066;BME280;59939;52.516;13.420;2022-10-17T08:06:19;101256.34;;;20.70;57.77
72066;BME280;59939;52.516;13.420;2022-10-17T08:09:23;101257.53;;;21.24;55.15
72066;BME280;59939;52.516;13.420;2022-10-17T08:12:27;101267.78;;;21.77;54.09
72066;BME280;59939;52.516;13.420;2022-10-17T08:15:35;101247.44;;;23.62;49.34
72066;BME280;59939;52.516;13.420;2022-10-17T08:18:41;101253.09;;;22.26;52.36
72066;BME280;59939;52.516;13.420;2022-10-17T08:21:47;101257.13;;;23.71;48.46
72066;BME280;59939;52.516;13.420;2022-10-17T08:24:56;101252.47;;;23.83;47.98
72066;BME280;59939;52.516;13.420;2022-10-17T08:28:00;101250.84;;;22.09;52.21
72066;BME280;59939;52.516;13.420;2022-10-17T08:31:09;101251.03;;;22.72;50.88
72066;BME280;59939;52.516;13.420;2022-10-17T08:34:21;101256.94;;;21.34;55.31
72066;BME280;59939;52.516;13.420;2022-10-17T08:37:28;101254.25;;;22.74;51.29
72066;BME280;59939;52.516;13.420;2022-10-17T08:40:36;101249.19;;;22.57;51.90
72066;BME280;59939;52.516;13.420;2022-10-17T08:47:27;101247.09;;;24.07;47.81
72066;BME280;59939;52.516;13.420;2022-10-17T08:50:41;101239.69;;;24.88;45.84
72066;BME280;59939;52.516;13.420;2022-10-17T08:54:08;101241.16;;;23.38;49.12
72066;BME280;59939;52.516;13.420;2022-10-17T08:57:21;101229.25;;;26.60;41.09
72066;BME280;59939;52.516;13.420;2022-10-17T09:00:27;101237.94;;;25.34;44.26
72066;BME280;59939;52.516;13.420;2022-10-17T09:07:20;101237.59;;;25.50;44.09
72066;BME280;59939;52.516;13.420;2022-10-17T09:10:53;101242.75;;;24.61;46.05
72066;BME280;59939;52.516;13.420;2022-10-17T09:14:09;101267.34;;;24.86;45.46
72066;BME280;59939;52.516;13.420;2022-10-17T09:17:50;101247.19;;;25.46;44.11
72066;BME280;59939;52.516;13.420;2022-10-17T09:21:00;101251.75;;;24.95;44.88
72066;BME280;59939;52.516;13.420;2022-10-17T09:24:11;101242.50;;;25.78;42.99
72066;BME280;59939;52.516;13.420;2022-10-17T09:27:23;101249.44;;;25.08;44.79
72066;BME280;59939;52.516;13.420;2022-10-17T09:30:34;101237.69;;;25.75;43.32
72066;BME280;59939;52.516;13.420;2022-10-17T09:33:50;101245.69;;;26.94;40.52
72066;BME280;59939;52.516;13.420;2022-10-17T09:36:58;101232.84;;;26.75;41.13
72066;BME280;59939;52.516;13.420;2022-10-17T09:40:06;101232.41;;;27.02;40.35
72066;BME280;59939;52.516;13.420;2022-10-17T09:43:14;101217.63;;;26.41;41.25
72066;BME280;59939;52.516;13.420;2022-10-17T09:46:37;101229.25;;;25.82;42.47
72066;BME280;59939;52.516;13.420;2022-10-17T09:49:43;101225.66;;;25.85;43.53
72066;BME280;59939;52.516;13.420;2022-10-17T09:52:51;101225.31;;;27.59;39.30
72066;BME280;59939;52.516;13.420;2022-10-17T09:56:12;101232.47;;;26.09;42.51
72066;BME280;59939;52.516;13.420;2022-10-17T09:59:30;101229.28;;;26.50;41.52
72066;BME280;59939;52.516;13.420;2022-10-17T10:02:38;101244.94;;;25.90;42.57
72066;BME280;59939;52.516;13.420;2022-10-17T10:06:03;101228.88;;;26.48;41.43
72066;BME280;59939;52.516;13.420;2022-10-17T10:09:22;101207.56;;;27.59;38.84
72066;BME280;59939;52.516;13.420;2022-10-17T10:12:32;101222.19;;;27.33;39.72
72066;BME280;59939;52.516;13.420;2022-10-17T10:15:44;101224.13;;;28.98;36.23
72066;BME280;59939;52.516;13.420;2022-10-17T10:18:56;101234.50;;;26.48;41.34
72066;BME280;59939;52.516;13.420;2022-10-17T10:22:17;101224.84;;;26.52;41.55
72066;BME280;59939;52.516;13.420;2022-10-17T10:25:22;101224.88;;;26.42;41.36
72066;BME280;59939;52.516;13.420;2022-10-17T10:28:34;101225.66;;;26.56;40.66
72066;BME280;59939;52.516;13.420;2022-10-17T10:31:39;101220.78;;;25.64;42.95
72066;BME280;59939;52.516;13.420;2022-10-17T10:34:50;101230.34;;;27.20;39.54
72066;BME280;59939;52.516;13.420;2022-10-17T10:37:56;101221.28;;;28.16;37.59
72066;BME280;59939;52.516;13.420;2022-10-17T10:41:06;101214.72;;;26.87;39.92
72066;BME280;59939;52.516;13.420;2022-10-17T10:44:13;101220.66;;;29.17;35.63
72066;BME280;59939;52.516;13.420;2022-10-17T10:47:24;101207.00;;;27.19;38.81
72066;BME280;59939;52.516;13.420;2022-10-17T10:50:36;101214.09;;;28.08;37.91
72066;BME280;59939;52.516;13.420;2022-10-17T10:53:49;101220.03;;;29.03;35.73
72066;BME280;59939;52.516;13.420;2022-10-17T10:56:59;101211.59;;;27.58;38.31
72066;BME280;59939;52.516;13.420;2022-10-17T11:00:17;101214.34;;;26.74;40.10
72066;BME280;59939;52.516;13.420;2022-10-17T11:03:26;101204.66;;;26.93;39.73
72066;BME280;59939;52.516;13.420;2022-10-17T11:06:41;101217.59;;;26.65;39.56
72066;BME280;59939;52.516;13.420;2022-10-17T11:09:58;101206.38;;;28.60;36.72
72066;BME280;59939;52.516;13.420;2022-10-17T11:13:17;101210.78;;;27.61;37.69
72066;BME280;59939;52.516;13.420;2022-10-17T11:16:46;101201.09;;;29.30;34.91
72066;BME280;59939;52.516;13.420;2022-10-17T11:23:50;101185.22;;;27.27;38.37
72066;BME280;59939;52.516;13.420;2022-10-17T11:27:04;101187.38;;;28.23;36.58
72066;BME280;59939;52.516;13.420;2022-10-17T11:30:13;101175.88;;;29.97;32.75
72066;BME280;59939;52.516;13.420;2022-10-17T11:33:45;101188.59;;;29.31;34.06
72066;BME280;59939;52.516;13.420;2022-10-17T11:36:53;101199.34;;;27.86;36.36
72066;BME280;59939;52.516;13.420;2022-10-17T11:40:05;101196.97;;;27.08;37.60
72066;BME280;59939;52.516;13.420;2022-10-17T11:43:30;101191.78;;;27.76;36.55
72066;BME280;59939;52.516;13.420;2022-10-17T11:46:36;101171.31;;;28.57;35.23
72066;BME280;59939;52.516;13.420;2022-10-17T11:49:48;101178.91;;;26.91;38.47
72066;BME280;59939;52.516;13.420;2022-10-17T11:53:05;101185.00;;;29.58;34.12
72066;BME280;59939;52.516;13.420;2022-10-17T11:56:18;101180.44;;;27.83;37.31
72066;BME280;59939;52.516;13.420;2022-10-17T12:02:48;101173.84;;;27.41;38.59
72066;BME280;59939;52.516;13.420;2022-10-17T12:09:45;101183.94;;;29.48;34.28
72066;BME280;59939;52.516;13.420;2022-10-17T12:12:51;101187.34;;;30.60;32.07
72066;BME280;59939;52.516;13.420;2022-10-17T12:15:56;101186.53;;;27.74;37.33
72066;BME280;59939;52.516;13.420;2022-10-17T12:25:22;101170.03;;;28.24;36.20
72066;BME280;59939;52.516;13.420;2022-10-17T12:28:27;101168.31;;;29.06;34.96
72066;BME280;59939;52.516;13.420;2022-10-17T12:31:33;101156.66;;;31.50;30.98
72066;BME280;59939;52.516;13.420;2022-10-17T12:34:50;101147.22;;;29.71;33.25
72066;BME280;59939;52.516;13.420;2022-10-17T12:38:13;101152.44;;;28.06;36.12
72066;BME280;59939;52.516;13.420;2022-10-17T12:44:50;101140.38;;;29.69;33.72
72066;BME280;59939;52.516;13.420;2022-10-17T12:48:01;101151.56;;;29.52;34.07
72066;BME280;59939;52.516;13.420;2022-10-17T12:54:29;101149.91;;;29.55;33.74
72066;BME280;59939;52.516;13.420;2022-10-17T12:57:50;101175.72;;;29.27;34.51
72066;BME280;59939;52.516;13.420;2022-10-17T13:00:59;101156.50;;;29.14;34.72
72066;BME280;59939;52.516;13.420;2022-10-17T13:04:25;101133.75;;;28.95;35.22
72066;BME280;59939;52.516;13.420;2022-10-17T13:07:43;101143.38;;;27.84;37.05
72066;BME280;59939;52.516;13.420;2022-10-17T13:10:48;101146.91;;;28.40;36.37
72066;BME280;59939;52.516;13.420;2022-10-17T13:14:20;101148.28;;;28.21;36.76
72066;BME280;59939;52.516;13.420;2022-10-17T13:17:27;101176.09;;;28.19;36.61
72066;BME280;59939;52.516;13.420;2022-10-17T13:20:34;101123.38;;;28.13;36.58
72066;BME280;59939;52.516;13.420;2022-10-17T13:23:38;101141.03;;;28.24;36.63
72066;BME280;59939;52.516;13.420;2022-10-17T13:26:45;101161.28;;;27.60;37.92
72066;BME280;59939;52.516;13.420;2022-10-17T13:29:49;101143.03;;;28.20;36.85
72066;BME280;59939;52.516;13.420;2022-10-17T13:33:30;101133.47;;;29.16;34.92
72066;BME280;59939;52.516;13.420;2022-10-17T13:36:35;101141.97;;;28.82;35.30
72066;BME280;59939;52.516;13.420;2022-10-17T13:39:45;101140.75;;;28.49;36.37
72066;BME280;59939;52.516;13.420;2022-10-17T13:43:18;101170.63;;;28.02;37.04
72066;BME280;59939;52.516;13.420;2022-10-17T13:46:39;101139.81;;;27.73;37.60
72066;BME280;59939;52.516;13.420;2022-10-17T13:49:44;101142.63;;;28.25;36.94
72066;BME280;59939;52.516;13.420;2022-10-17T13:52:48;101145.03;;;28.27;36.75
72066;BME280;59939;52.516;13.420;2022-10-17T13:56:33;101138.78;;;28.01;37.28
72066;BME280;59939;52.516;13.420;2022-10-17T13:59:39;101155.66;;;28.08;37.37
72066;BME280;59939;52.516;13.420;2022-10-17T14:02:52;101134.03;;;28.70;36.20
72066;BME280;59939;52.516;13.420;2022-10-17T14:06:03;101158.44;;;28.56;36.39
72066;BME280;59939;52.516;13.420;2022-10-17T14:09:17;101178.63;;;28.07;37.18
72066;BME280;59939;52.516;13.420;2022-10-17T14:12:22;101155.31;;;28.47;36.83
72066;BME280;59939;52.516;13.420;2022-10-17T14:15:30;101154.97;;;29.37;35.22
72066;BME280;59939;52.516;13.420;2022-10-17T14:19:00;101157.72;;;29.13;35.31
72066;BME280;59939;52.516;13.420;2022-10-17T14:22:25;101153.97;;;28.93;35.81
72066;BME280;59939;52.516;13.420;2022-10-17T14:25:33;101145.84;;;29.56;34.53
72066;BME280;59939;52.516;13.420;2022-10-17T14:28:42;101171.09;;;29.09;35.25
72066;BME280;59939;52.516;13.420;2022-10-17T14:31:46;101153.06;;;29.00;35.66
72066;BME280;59939;52.516;13.420;2022-10-17T14:34:54;101157.81;;;29.37;35.00
72066;BME280;59939;52.516;13.420;2022-10-17T14:38:03;101173.81;;;28.86;35.82
72066;BME280;59939;52.516;13.420;2022-10-17T14:41:14;101193.59;;;28.00;37.56
72066;BME280;59939;52.516;13.420;2022-10-17T14:44:41;101168.47;;;28.95;35.92
72066;BME280;59939;52.516;13.420;2022-10-17T14:47:55;101199.38;;;27.82;37.89
72066;BME280;59939;52.516;13.420;2022-10-17T14:51:14;101157.34;;;27.40;39.09
72066;BME280;59939;52.516;13.420;2022-10-17T14:54:24;101154.69;;;27.18;39.69
72066;BME280;59939;52.516;13.420;2022-10-17T15:00:37;101174.75;;;27.27;39.25
72066;BME280;59939;52.516;13.420;2022-10-17T15:03:48;101187.72;;;27.80;38.52
72066;BME280;59939;52.516;13.420;2022-10-17T15:06:53;101170.53;;;27.57;39.31
72066;BME280;59939;52.516;13.420;2022-10-17T15:09:58;101172.03;;;27.76;38.55
72066;BME280;59939;52.516;13.420;2022-10-17T15:13:04;101179.03;;;27.50;39.20
72066;BME280;59939;52.516;13.420;2022-10-17T15:16:33;101172.47;;;27.71;39.34
72066;BME280;59939;52.516;13.420;2022-10-17T15:19:37;101171.06;;;27.97;38.43
72066;BME280;59939;52.516;13.420;2022-10-17T15:22:40;101179.72;;;27.72;39.65
72066;BME280;59939;52.516;13.420;2022-10-17T15:25:44;101167.97;;;27.80;38.93
72066;BME280;59939;52.516;13.420;2022-10-17T15:28:51;101174.00;;;28.31;38.04
72066;BME280;59939;52.516;13.420;2022-10-17T15:31:56;101182.53;;;27.72;39.31
72066;BME280;59939;52.516;13.420;2022-10-17T15:34:59;101177.81;;;27.51;39.55
72066;BME280;59939;52.516;13.420;2022-10-17T15:38:07;101171.03;;;27.41;40.18
72066;BME280;59939;52.516;13.420;2022-10-17T15:41:14;101180.28;;;27.42;39.98
72066;BME280;59939;52.516;13.420;2022-10-17T15:44:26;101189.75;;;26.96;41.22
72066;BME280;59939;52.516;13.420;2022-10-17T15:47:33;101194.97;;;27.05;40.94
72066;BME280;59939;52.516;13.420;2022-10-17T15:50:38;101190.16;;;26.94;41.44
72066;BME280;59939;52.516;13.420;2022-10-17T15:53:49;101186.63;;;26.73;41.97
72066;BME280;59939;52.516;13.420;2022-10-17T15:56:53;101192.63;;;26.82;41.66
72066;BME280;59939;52.516;13.420;2022-10-17T15:59:58;101182.56;;;26.81;41.78
72066;BME280;59939;52.516;13.420;2022-10-17T16:03:03;101171.34;;;26.67;42.20
72066;BME280;59939;52.516;13.420;2022-10-17T16:06:07;101185.03;;;26.54;41.94
72066;BME280;59939;52.516;13.420;2022-10-17T16:09:25;101186.25;;;26.56;41.71
72066;BME280;59939;52.516;13.420;2022-10-17T16:12:29;101191.91;;;26.35;42.02
72066;BME280;59939;52.516;13.420;2022-10-17T16:15:40;101191.88;;;26.53;41.83
72066;BME280;59939;52.516;13.420;2022-10-17T16:18:44;101181.75;;;26.87;41.39
72066;BME280;59939;52.516;13.420;2022-10-17T16:21:56;101194.22;;;26.79;41.31
72066;BME280;59939;52.516;13.420;2022-10-17T16:25:03;101189.03;;;26.63;41.57
72066;BME280;59939;52.516;13.420;2022-10-17T16:28:15;101187.00;;;26.75;41.53
72066;BME280;59939;52.516;13.420;2022-10-17T16:31:29;101196.31;;;26.43;42.03
72066;BME280;59939;52.516;13.420;2022-10-17T16:34:33;101202.34;;;26.49;41.97
72066;BME280;59939;52.516;13.420;2022-10-17T16:37:37;101190.28;;;26.41;42.19
72066;BME280;59939;52.516;13.420;2022-10-17T16:40:41;101191.88;;;26.56;41.75
72066;BME280;59939;52.516;13.420;2022-10-17T16:43:47;101197.06;;;26.69;41.70
72066;BME280;59939;52.516;13.420;2022-10-17T16:46:52;101201.50;;;26.70;41.66
72066;BME280;59939;52.516;13.420;2022-10-17T16:49:56;101187.81;;;26.79;41.19
72066;BME280;59939;52.516;13.420;2022-10-17T16:53:00;101200.66;;;26.87;40.81
72066;BME280;59939;52.516;13.420;2022-10-17T16:56:05;101193.44;;;26.79;41.06
72066;BME280;59939;52.516;13.420;2022-10-17T16:59:10;101202.06;;;27.30;39.80
72066;BME280;59939;52.516;13.420;2022-10-17T17:02:23;101203.22;;;27.44;39.59
72066;BME280;59939;52.516;13.420;2022-10-17T17:05:28;101212.22;;;27.17;40.33
72066;BME280;59939;52.516;13.420;2022-10-17T17:09:00;101207.94;;;26.67;41.27